Time;durP1;ratioP1;P1;durP2;ratioP2;P2;SDS_P1;SDS_P2;PMS_P1;PMS_P2;Temp;Humidity;BMP_temperature;BMP_pressure;BME280_temperature;BME280_humidity;BME280_pressure;Samples;Min_cycle;Max_cycle;Signal;HPM_P1;HPM_P2
2023/04/09 00:01:12;;;;;;;57.83;31.65;;;;;;;4.90;100.00;99405.91;4160221;28;20540;-71
2023/04/09 00:03:12;;;;;;;59.90;30.33;;;;;;;4.86;100.00;99411.22;4158062;28;20124;-71
2023/04/09 00:05:13;;;;;;;56.97;30.50;;;;;;;4.86;100.00;99411.22;4159810;28;20069;-71
2023/04/09 00:07:13;;;;;;;59.08;29.45;;;;;;;4.91;100.00;99416.56;4160265;28;20069;-71
2023/04/09 00:09:13;;;;;;;49.53;29.00;;;;;;;4.92;100.00;99414.63;4158252;28;20409;-71
2023/04/09 00:11:14;;;;;;;50.80;27.38;;;;;;;4.95;100.00;99406.56;4159283;28;20054;-71
2023/04/09 00:13:14;;;;;;;52.13;28.80;;;;;;;4.94;100.00;99398.66;4158885;28;20421;-71
2023/04/09 00:15:15;;;;;;;51.97;27.15;;;;;;;4.96;100.00;99399.13;4159507;28;20037;-71
2023/04/09 00:17:15;;;;;;;49.60;27.85;;;;;;;4.94;100.00;99406.88;4160278;28;20064;-71
2023/04/09 00:19:16;;;;;;;52.70;27.88;;;;;;;4.94;100.00;99398.66;4158267;28;20084;-71
2023/04/09 00:21:16;;;;;;;48.38;27.20;;;;;;;4.90;100.00;99395.75;4160216;28;20667;-71
2023/04/09 00:23:16;;;;;;;50.30;28.00;;;;;;;4.90;100.00;99398.50;4157327;28;20120;-71
2023/04/09 00:25:17;;;;;;;47.50;27.25;;;;;;;4.89;100.00;99399.63;4159039;28;20120;-71
2023/04/09 00:27:17;;;;;;;45.63;26.17;;;;;;;4.89;100.00;99404.31;4159674;28;20377;-71
2023/04/09 00:29:18;;;;;;;52.00;27.38;;;;;;;4.93;100.00;99399.78;4157855;28;20044;-71
2023/04/09 00:31:18;;;;;;;48.38;26.17;;;;;;;4.92;100.00;99404.47;4164786;28;20075;-71
2023/04/09 00:33:19;;;;;;;46.58;24.95;;;;;;;4.92;100.00;99398.16;4159212;28;20072;-71
2023/04/09 00:35:19;;;;;;;43.55;25.55;;;;;;;4.93;100.00;99399.78;4160039;28;20048;-71
2023/04/09 00:37:20;;;;;;;46.63;26.55;;;;;;;4.91;100.00;99396.56;4159275;28;20482;-71
2023/04/09 00:39:20;;;;;;;50.90;28.02;;;;;;;4.88;100.00;99398.00;4163055;28;20373;-71
2023/04/09 00:41:20;;;;;;;52.90;27.15;;;;;;;4.85;100.00;99404.13;4159432;28;20061;-71
2023/04/09 00:43:21;;;;;;;50.35;26.05;;;;;;;4.90;100.00;99405.91;4158996;28;20045;-72
2023/04/09 00:45:21;;;;;;;52.60;26.27;;;;;;;4.87;100.00;99410.09;4160194;28;20393;-72
2023/04/09 00:47:22;;;;;;;49.42;26.85;;;;;;;4.88;100.00;99406.25;4159731;28;20065;-71
2023/04/09 00:49:25;;;;;;;50.53;27.02;;;;;;;4.87;100.00;99398.31;4158847;28;20164;-71
2023/04/09 00:51:25;;;;;;;46.45;26.08;;;;;;;4.88;100.00;99400.75;4159335;28;20045;-71
2023/04/09 00:53:26;;;;;;;51.58;27.42;;;;;;;4.87;100.00;99409.28;4161341;28;20048;-72
2023/04/09 00:55:27;;;;;;;47.97;26.58;;;;;;;4.87;100.00;99415.56;4166975;28;20045;-72
2023/04/09 00:57:27;;;;;;;50.40;26.75;;;;;;;4.85;100.00;99395.06;4160194;28;20058;-72
2023/04/09 00:59:28;;;;;;;51.10;27.52;;;;;;;4.87;100.00;99412.81;4162621;28;20137;-72
2023/04/09 01:01:28;;;;;;;49.38;27.33;;;;;;;4.85;100.00;99401.38;4176868;28;20478;-72
2023/04/09 01:03:28;;;;;;;50.97;26.75;;;;;;;4.87;100.00;99407.34;4166102;28;20045;-71
2023/04/09 01:05:43;;;;;;;57.95;27.27;;;;;;;4.87;100.00;99412.81;4161486;28;20034;-71
2023/04/09 01:08:15;;;;;;;52.35;27.52;;;;;;;4.91;100.00;99410.28;4161516;28;20045;-71
2023/04/09 01:10:34;;;;;;;47.83;24.33;;;;;;;4.90;100.00;99409.47;4163044;28;20509;-71
2023/04/09 01:12:34;;;;;;;52.63;27.08;;;;;;;4.92;100.00;99411.88;4160549;28;20054;-71
2023/04/09 01:14:53;;;;;;;51.60;26.63;;;;;;;4.90;100.00;99412.22;4163538;28;20492;-71
2023/04/09 01:17:04;;;;;;;51.78;26.38;;;;;;;4.90;100.00;99417.69;4163239;28;20046;-71
2023/04/09 01:19:45;;;;;;;50.72;27.02;;;;;;;4.88;100.00;99408.97;4164928;28;20072;-71
2023/04/09 01:21:46;;;;;;;50.17;26.02;;;;;;;4.87;100.00;99412.00;4161324;28;20126;-71
2023/04/09 01:24:01;;;;;;;50.45;25.70;;;;;;;4.87;100.00;99412.81;4161489;28;20056;-71
2023/04/09 01:26:10;;;;;;;49.08;24.85;;;;;;;4.87;100.00;99412.81;4162416;28;20038;-71
2023/04/09 01:28:17;;;;;;;53.67;26.27;;;;;;;4.85;100.00;99409.59;4162144;28;20052;-71
2023/04/09 01:30:19;;;;;;;48.28;25.58;;;;;;;4.83;100.00;99405.56;4162088;28;20053;-71
2023/04/09 01:32:20;;;;;;;48.37;26.03;;;;;;;4.82;100.00;99407.50;4160340;28;20071;-71
2023/04/09 01:34:21;;;;;;;55.03;27.27;;;;;;;4.84;100.00;99404.44;4160533;28;20045;-71
2023/04/09 01:36:25;;;;;;;50.13;26.90;;;;;;;4.82;100.00;99404.75;4166085;28;20195;-71
2023/04/09 01:38:26;;;;;;;46.92;26.30;;;;;;;4.82;100.00;99407.50;4161705;28;20044;-71
2023/04/09 01:40:27;;;;;;;45.97;25.27;;;;;;;4.79;100.00;99397.94;4160117;28;20045;-71
2023/04/09 01:42:28;;;;;;;51.20;26.73;;;;;;;4.81;100.00;99405.88;4161515;28;20083;-71
2023/04/09 01:44:30;;;;;;;55.58;26.60;;;;;;;4.79;100.00;99400.69;4160956;28;20045;-71
2023/04/09 01:46:32;;;;;;;48.90;25.35;;;;;;;4.80;100.00;99407.00;4160759;28;20043;-71
2023/04/09 01:48:33;;;;;;;60.10;29.10;;;;;;;4.80;100.00;99415.25;4161098;28;20061;-71
2023/04/09 01:50:34;;;;;;;50.20;25.50;;;;;;;4.77;100.00;99408.44;4162092;28;20076;-71
2023/04/09 01:52:35;;;;;;;51.40;26.75;;;;;;;4.78;100.00;99412.78;4160792;28;20108;-71
2023/04/09 01:54:35;;;;;;;54.85;27.65;;;;;;;4.76;100.00;99414.25;4160572;28;20124;-71
2023/04/09 01:56:46;;;;;;;53.05;27.52;;;;;;;4.73;100.00;99412.94;4161072;28;20520;-71
2023/04/09 01:58:47;;;;;;;53.10;26.52;;;;;;;4.74;100.00;99408.28;4160789;28;20381;-72
2023/04/09 02:00:48;;;;;;;53.45;26.35;;;;;;;4.73;100.00;99412.16;4160304;28;20084;-72
2023/04/09 02:03:01;;;;;;;52.33;25.80;;;;;;;4.73;100.00;99406.66;4159373;28;20073;-72
2023/04/09 02:05:09;;;;;;;48.30;25.45;;;;;;;4.71;100.00;99417.13;4166641;28;20413;-71
2023/04/09 02:07:17;;;;;;;57.40;26.88;;;;;;;4.70;100.00;99419.06;4160682;28;20049;-71
2023/04/09 02:09:19;;;;;;;53.50;26.90;;;;;;;4.73;100.00;99412.16;4160656;28;20045;-71
2023/04/09 02:11:22;;;;;;;48.78;26.13;;;;;;;4.71;100.00;99419.84;4159957;28;20378;-71
2023/04/09 02:13:25;;;;;;;50.70;26.42;;;;;;;4.69;100.00;99411.16;4160664;28;20413;-71
2023/04/09 02:15:27;;;;;;;55.13;27.75;;;;;;;4.67;100.00;99419.69;4161104;28;20056;-71
2023/04/09 02:17:28;;;;;;;52.92;27.80;;;;;;;4.64;100.00;99414.03;4161765;28;20448;-71
2023/04/09 02:19:42;;;;;;;53.45;25.70;;;;;;;4.68;100.00;99420.50;4162544;28;20124;-71
2023/04/09 02:21:43;;;;;;;52.05;27.42;;;;;;;4.67;100.00;99422.44;4161083;28;20424;-71
2023/04/09 02:23:43;;;;;;;51.78;25.73;;;;;;;4.68;100.00;99415.00;4158905;28;20046;-71
2023/04/09 02:25:44;;;;;;;48.35;25.92;;;;;;;4.69;100.00;99416.63;4161135;28;20080;-71
2023/04/09 02:27:44;;;;;;;49.42;25.70;;;;;;;4.70;100.00;99423.72;4161506;28;20068;-71
2023/04/09 02:29:45;;;;;;;53.10;24.63;;;;;;;4.69;100.00;99420.19;4160303;28;20095;-71
2023/04/09 02:31:45;;;;;;;56.63;27.98;;;;;;;4.68;100.00;99412.28;4159806;28;20174;-71
2023/04/09 02:33:45;;;;;;;48.00;24.92;;;;;;;4.70;100.00;99415.50;4159921;28;20474;-71
2023/04/09 02:35:46;;;;;;;50.83;24.85;;;;;;;4.69;100.00;99419.38;4160449;28;20044;-71
2023/04/09 02:37:46;;;;;;;55.28;27.08;;;;;;;4.66;100.00;99417.28;4160157;28;20037;-71
2023/04/09 02:39:46;;;;;;;54.10;26.45;;;;;;;4.67;100.00;99419.69;4160288;28;20444;-71
2023/04/09 02:41:46;;;;;;;59.97;27.63;;;;;;;4.63;100.00;99413.22;4160162;28;20029;-71
2023/04/09 02:43:47;;;;;;;54.20;25.67;;;;;;;4.64;100.00;99420.34;4159788;28;20064;-71
2023/04/09 02:45:47;;;;;;;52.30;25.30;;;;;;;4.63;100.00;99415.94;4163212;28;20120;-71
2023/04/09 02:47:47;;;;;;;55.28;26.75;;;;;;;4.62;100.00;99414.34;4160629;28;20140;-71
2023/04/09 02:49:48;;;;;;;51.08;25.55;;;;;;;4.61;100.00;99415.47;4161904;28;20382;-71
2023/04/09 02:51:48;;;;;;;51.58;25.33;;;;;;;4.62;100.00;99424.50;4159623;28;20425;-72
2023/04/09 02:53:48;;;;;;;55.75;25.45;;;;;;;4.59;100.00;99412.25;4159107;28;20797;-72
2023/04/09 02:55:49;;;;;;;51.85;26.75;;;;;;;4.60;100.00;99424.00;4159337;28;20040;-72
2023/04/09 02:57:49;;;;;;;53.67;25.27;;;;;;;4.58;100.00;99407.88;4163898;28;20042;-72
2023/04/09 02:59:49;;;;;;;52.22;27.35;;;;;;;4.60;100.00;99411.13;4160509;28;20413;-72
2023/04/09 03:01:50;;;;;;;46.80;25.48;;;;;;;4.60;100.00;99410.31;4159994;28;20033;-72
2023/04/09 03:03:50;;;;;;;52.80;27.17;;;;;;;4.58;100.00;99413.38;4159660;28;20079;-71
2023/04/09 03:05:50;;;;;;;57.78;26.92;;;;;;;4.58;100.00;99407.06;4159855;28;20340;-71
2023/04/09 03:07:52;;;;;;;54.47;26.83;;;;;;;4.55;100.00;99407.69;4160662;28;20073;-71
2023/04/09 03:09:53;;;;;;;56.70;26.67;;;;;;;4.53;100.00;99405.28;4159696;28;20414;-72
2023/04/09 03:11:55;;;;;;;61.78;27.92;;;;;;;4.53;100.00;99398.97;4158897;28;20072;-72
2023/04/09 03:13:55;;;;;;;49.92;25.67;;;;;;;4.53;100.00;99408.00;4164776;28;20045;-72
2023/04/09 03:15:55;;;;;;;50.25;26.00;;;;;;;4.55;100.00;99413.16;4160884;28;20080;-72
2023/04/09 03:17:56;;;;;;;51.75;25.83;;;;;;;4.55;100.00;99404.94;4160658;28;20160;-72
2023/04/09 03:19:56;;;;;;;45.85;25.15;;;;;;;4.53;100.00;99404.47;4160694;28;20077;-72
2023/04/09 03:21:57;;;;;;;53.95;25.60;;;;;;;4.52;100.00;99406.41;4159693;28;20335;-71
2023/04/09 03:23:57;;;;;;;50.30;25.33;;;;;;;4.52;100.00;99403.66;4158322;28;20047;-71
2023/04/09 03:26:01;;;;;;;52.22;26.85;;;;;;;4.51;100.00;99402.03;4160383;28;20120;-71
2023/04/09 03:28:02;;;;;;;54.15;24.48;;;;;;;4.49;100.00;99407.03;4160151;28;20280;-71
2023/04/09 03:30:02;;;;;;;53.22;26.58;;;;;;;4.47;100.00;99403.81;4160669;28;20462;-71
2023/04/09 03:32:03;;;;;;;48.80;24.90;;;;;;;4.48;100.00;99400.75;4159374;28;20116;-71
2023/04/09 03:34:03;;;;;;;50.28;25.67;;;;;;;4.48;100.00;99405.44;4159260;28;20021;-71
2023/04/09 03:36:04;;;;;;;52.65;25.13;;;;;;;4.46;100.00;99402.97;4161692;28;20060;-71
2023/04/09 03:38:04;;;;;;;56.90;26.83;;;;;;;4.44;100.00;99405.22;4157972;28;20124;-71
2023/04/09 03:40:05;;;;;;;53.22;26.80;;;;;;;4.47;100.00;99401.06;4160031;28;20057;-71
2023/04/09 03:42:06;;;;;;;43.97;23.42;;;;;;;4.46;100.00;99399.44;4160445;28;20148;-71
2023/04/09 03:44:06;;;;;;;47.92;24.55;;;;;;;4.45;100.00;99409.59;4157966;28;20029;-71
2023/04/09 03:46:11;;;;;;;50.53;25.98;;;;;;;4.45;100.00;99408.78;4160281;28;20454;-71
2023/04/09 03:48:11;;;;;;;43.65;22.08;;;;;;;4.42;100.00;99396.53;4159178;28;20097;-71
2023/04/09 03:50:12;;;;;;;55.15;26.27;;;;;;;4.41;100.00;99394.09;4159551;28;20543;-71
2023/04/09 03:52:12;;;;;;;49.60;25.85;;;;;;;4.42;100.00;99398.47;4157658;28;20377;-71
2023/04/09 03:54:12;;;;;;;47.97;24.15;;;;;;;4.39;100.00;99402.66;4161552;28;20029;-71
2023/04/09 03:56:13;;;;;;;48.97;24.15;;;;;;;4.35;100.00;99400.84;4159797;28;20045;-71
2023/04/09 03:58:13;;;;;;;52.20;25.17;;;;;;;4.30;100.00;99399.03;4158423;28;20043;-71
2023/04/09 04:00:13;;;;;;;45.22;23.45;;;;;;;4.30;100.00;99398.22;4159743;28;20026;-71
2023/04/09 04:02:14;;;;;;;44.10;22.23;;;;;;;4.28;100.00;99395.78;4159502;28;20087;-71
2023/04/09 04:04:14;;;;;;;46.47;23.75;;;;;;;4.28;100.00;99400.47;4157891;28;20147;-71
2023/04/09 04:06:14;;;;;;;44.47;22.92;;;;;;;4.27;100.00;99398.84;4159301;28;20373;-71
2023/04/09 04:08:15;;;;;;;46.83;23.65;;;;;;;4.24;100.00;99397.56;4159319;28;20041;-71
2023/04/09 04:10:15;;;;;;;49.08;23.70;;;;;;;4.21;100.00;99403.66;4159922;28;20037;-71
2023/04/09 04:12:16;;;;;;;49.53;24.00;;;;;;;4.18;100.00;99407.84;4161003;28;20030;-71
2023/04/09 04:14:16;;;;;;;39.63;22.20;;;;;;;4.14;100.00;99411.53;4159240;28;20319;-71
2023/04/09 04:16:16;;;;;;;47.63;21.80;;;;;;;4.11;100.00;99410.19;4161008;28;20061;-71
2023/04/09 04:18:16;;;;;;;37.55;20.25;;;;;;;4.07;100.00;99408.41;4164414;28;20033;-71
2023/04/09 04:20:17;;;;;;;41.97;20.15;;;;;;;4.05;100.00;99408.69;4159774;28;20026;-71
2023/04/09 04:22:17;;;;;;;40.00;20.08;;;;;;;4.07;100.00;99414.69;4159510;28;20452;-71
2023/04/09 04:24:18;;;;;;;41.70;20.30;;;;;;;4.07;100.00;99416.63;4159563;28;20141;-71
2023/04/09 04:26:18;;;;;;;40.22;20.83;;;;;;;4.08;100.00;99420.97;4161308;28;20474;-71
2023/04/09 04:28:18;;;;;;;41.30;21.05;;;;;;;4.09;100.00;99419.84;4167320;28;20476;-71
2023/04/09 04:30:19;;;;;;;40.25;22.10;;;;;;;4.08;100.00;99423.72;4161996;28;20033;-71
2023/04/09 04:32:20;;;;;;;46.17;22.58;;;;;;;4.08;100.00;99430.00;4162082;28;20120;-71
2023/04/09 04:34:20;;;;;;;43.03;21.05;;;;;;;4.07;100.00;99422.09;4162003;28;20030;-71
2023/04/09 04:36:20;;;;;;;41.65;22.60;;;;;;;4.08;100.00;99426.47;4164474;28;20073;-71
2023/04/09 04:38:20;;;;;;;42.30;19.95;;;;;;;4.06;100.00;99420.50;4163219;28;20077;-71
2023/04/09 04:40:21;;;;;;;39.83;20.45;;;;;;;4.03;100.00;99421.91;4161735;28;20084;-71
2023/04/09 04:42:22;;;;;;;38.30;20.30;;;;;;;4.03;100.00;99415.63;4161662;28;20376;-71
2023/04/09 04:44:22;;;;;;;42.20;21.30;;;;;;;4.00;100.00;99417.06;4165317;28;20788;-71
2023/04/09 04:46:22;;;;;;;39.53;20.52;;;;;;;3.99;100.00;99412.72;4162671;28;20045;-71
2023/04/09 04:48:23;;;;;;;36.55;19.13;;;;;;;4.01;100.00;99415.94;4178656;28;20215;-71
2023/04/09 04:50:23;;;;;;;41.33;22.13;;;;;;;4.00;100.00;99419.81;4161154;28;20037;-71
2023/04/09 04:52:24;;;;;;;37.67;20.38;;;;;;;3.98;100.00;99407.56;4161168;28;20486;-71
2023/04/09 04:54:24;;;;;;;38.35;20.05;;;;;;;3.99;100.00;99420.94;4160664;28;20043;-71
2023/04/09 04:56:25;;;;;;;41.95;20.02;;;;;;;3.99;100.00;99422.84;4161769;28;20034;-71
2023/04/09 04:58:25;;;;;;;40.83;21.05;;;;;;;3.96;100.00;99421.53;4162982;28;20072;-71
2023/04/09 05:00:25;;;;;;;39.75;20.08;;;;;;;3.95;100.00;99422.66;4163574;28;20034;-71
2023/04/09 05:02:25;;;;;;;42.03;21.10;;;;;;;3.91;100.00;99422.47;4162227;28;20054;-71
2023/04/09 05:04:26;;;;;;;38.53;18.63;;;;;;;3.92;100.00;99431.50;4160191;28;20053;-71
2023/04/09 05:06:26;;;;;;;38.33;18.88;;;;;;;3.90;100.00;99425.53;4164034;28;20049;-71
2023/04/09 05:08:27;;;;;;;44.47;19.88;;;;;;;3.87;100.00;99432.41;4163633;28;20268;-71
2023/04/09 05:10:27;;;;;;;37.08;19.85;;;;;;;3.89;100.00;99440.34;4160584;28;20042;-71
2023/04/09 05:12:30;;;;;;;39.97;20.65;;;;;;;3.87;100.00;99440.63;4162094;28;20049;-71
2023/04/09 05:14:31;;;;;;;35.58;18.83;;;;;;;3.83;100.00;99436.91;4163986;28;20056;-72
2023/04/09 05:16:31;;;;;;;32.65;19.27;;;;;;;3.85;100.00;99440.13;4164396;28;20482;-72
2023/04/09 05:18:31;;;;;;;37.20;20.00;;;;;;;3.83;100.00;99442.38;4163758;28;20053;-72
2023/04/09 05:20:32;;;;;;;37.60;18.70;;;;;;;3.83;100.00;99455.25;4164156;28;20041;-71
2023/04/09 05:22:33;;;;;;;37.38;19.15;;;;;;;3.80;100.00;99453.94;4161399;28;21058;-71
2023/04/09 05:24:33;;;;;;;34.75;18.35;;;;;;;3.77;100.00;99449.09;4160761;28;20080;-71
2023/04/09 05:26:34;;;;;;;34.40;19.75;;;;;;;3.74;100.00;99446.97;4163212;28;21049;-71
2023/04/09 05:28:34;;;;;;;38.35;20.05;;;;;;;3.74;100.00;99446.19;4162275;28;20494;-71
2023/04/09 05:30:35;;;;;;;37.65;18.63;;;;;;;3.75;100.00;99448.59;4161214;28;20040;-71
2023/04/09 05:32:35;;;;;;;38.42;18.30;;;;;;;3.76;100.00;99449.41;4160913;28;20046;-71
2023/04/09 05:34:35;;;;;;;38.78;19.90;;;;;;;3.76;100.00;99454.88;4161239;28;20381;-72
2023/04/09 05:36:36;;;;;;;38.83;19.80;;;;;;;3.74;100.00;99446.19;4144420;28;20057;-72
2023/04/09 05:38:36;;;;;;;38.28;18.90;;;;;;;3.73;100.00;99450.84;4160195;28;20037;-72
2023/04/09 05:40:36;;;;;;;36.85;19.08;;;;;;;3.71;100.00;99454.97;4161936;28;20125;-72
2023/04/09 05:42:37;;;;;;;41.22;19.58;;;;;;;3.69;100.00;99455.31;4160961;28;20541;-71
2023/04/09 05:44:37;;;;;;;40.17;19.23;;;;;;;3.67;100.00;99452.06;4162051;28;20045;-71
2023/04/09 05:46:37;;;;;;;38.28;18.30;;;;;;;3.69;100.00;99452.56;4161492;28;20748;-71
2023/04/09 05:48:38;;;;;;;34.63;18.20;;;;;;;3.69;100.00;99452.56;4160704;28;20049;-71
2023/04/09 05:50:38;;;;;;;37.42;20.02;;;;;;;3.66;100.00;99456.75;4162907;28;20140;-71
2023/04/09 05:52:39;;;;;;;41.13;19.63;;;;;;;3.66;100.00;99455.94;4160562;28;20054;-71
2023/04/09 05:54:39;;;;;;;37.92;19.05;;;;;;;3.68;100.00;99453.69;4161084;28;20077;-71
2023/04/09 05:56:41;;;;;;;32.60;18.05;;;;;;;3.69;100.00;99455.31;4160486;28;20104;-71
2023/04/09 05:58:42;;;;;;;37.55;19.67;;;;;;;3.72;100.00;99449.19;4160563;28;20102;-71
2023/04/09 06:00:42;;;;;;;42.95;19.77;;;;;;;3.74;100.00;99457.13;4162623;28;20083;-71
2023/04/09 06:02:43;;;;;;;37.08;19.10;;;;;;;3.80;100.00;99443.00;4161314;28;20132;-71
2023/04/09 06:04:44;;;;;;;37.10;19.10;;;;;;;3.89;100.00;99454.84;4162683;28;20098;-71
2023/04/09 06:06:44;;;;;;;39.63;18.88;;;;;;;3.95;100.00;99455.50;4160070;28;20085;-71
2023/04/09 06:08:45;;;;;;;39.38;19.33;;;;;;;4.04;100.00;99458.31;4160407;28;20533;-71
2023/04/09 06:10:45;;;;;;;38.65;20.27;;;;;;;4.10;100.00;99454.34;4161834;28;20060;-71
2023/04/09 06:12:45;;;;;;;38.15;19.25;;;;;;;4.18;100.00;99462.63;4160314;28;20068;-71
2023/04/09 06:14:49;;;;;;;35.53;18.02;;;;;;;4.30;100.00;99459.28;4164045;28;20056;-71
2023/04/09 06:16:49;;;;;;;36.55;18.65;;;;;;;4.39;100.00;99473.88;4160494;28;20033;-71
2023/04/09 06:18:53;;;;;;;39.78;20.83;;;;;;;4.45;100.00;99466.31;4160747;28;20048;-71
2023/04/09 06:21:06;;;;;;;36.15;18.23;;;;;;;4.44;100.00;99459.22;4161076;28;20050;-71
2023/04/09 06:23:07;;;;;;;34.15;18.63;;;;;;;4.51;100.00;99457.66;4160813;28;20133;-71
2023/04/09 06:25:07;;;;;;;37.75;19.10;;;;;;;4.56;100.00;99458.66;4159079;28;20065;-72
2023/04/09 06:27:08;;;;;;;35.63;18.35;;;;;;;4.61;100.00;99469.47;4161230;28;20467;-72
2023/04/09 06:29:08;;;;;;;37.00;19.77;;;;;;;4.65;100.00;99468.56;4160906;28;20083;-72
2023/04/09 06:31:09;;;;;;;35.97;18.75;;;;;;;4.71;100.00;99471.94;4160424;28;20124;-72
2023/04/09 06:33:09;;;;;;;57.15;20.40;;;;;;;4.77;100.00;99465.22;4158782;28;20473;-72
2023/04/09 06:35:10;;;;;;;35.30;18.38;;;;;;;4.80;100.00;99470.06;4160437;28;20497;-72
2023/04/09 06:37:10;;;;;;;39.45;18.95;;;;;;;4.83;100.00;99476.84;4162334;28;20808;-72
2023/04/09 06:39:10;;;;;;;41.10;20.40;;;;;;;4.84;100.00;99473.78;4159807;28;20033;-72
2023/04/09 06:41:11;;;;;;;38.90;19.98;;;;;;;4.88;100.00;99477.53;4163948;28;20104;-72
2023/04/09 06:43:11;;;;;;;39.65;19.10;;;;;;;4.93;100.00;99473.81;4160089;28;20157;-72
2023/04/09 06:45:12;;;;;;;35.70;18.95;;;;;;;4.98;100.00;99482.72;4159311;28;20494;-72
2023/04/09 06:47:12;;;;;;;40.92;20.20;;;;;;;5.00;100.00;99472.25;4160499;28;20480;-72
2023/04/09 06:49:12;;;;;;;38.40;20.08;;;;;;;5.05;100.00;99482.28;4159203;28;20612;-72
2023/04/09 06:51:13;;;;;;;36.53;19.30;;;;;;;5.05;100.00;99477.59;4161875;28;20057;-72
2023/04/09 06:53:14;;;;;;;35.67;19.08;;;;;;;5.05;100.00;99476.78;4159012;28;20050;-72
2023/04/09 06:55:15;;;;;;;38.20;19.95;;;;;;;5.10;100.00;99487.59;4142562;28;20454;-72
2023/04/09 06:57:15;;;;;;;37.88;19.52;;;;;;;5.12;100.00;99482.59;4159784;28;20096;-72
2023/04/09 06:59:16;;;;;;;35.40;19.33;;;;;;;5.17;100.00;99482.47;4160729;28;20069;-72
2023/04/09 07:01:16;;;;;;;40.08;21.60;;;;;;;5.20;100.00;99489.25;4160941;28;20566;-72
2023/04/09 07:03:16;;;;;;;41.40;21.00;;;;;;;5.22;100.00;99484.28;4159185;28;20102;-72
2023/04/09 07:05:17;;;;;;;38.15;19.85;;;;;;;5.24;100.00;99482.81;4160068;28;20120;-72
2023/04/09 07:07:19;;;;;;;39.70;20.25;;;;;;;5.29;100.00;99473.63;4159369;28;20042;-71
2023/04/09 07:09:20;;;;;;;37.05;19.30;;;;;;;5.35;100.00;99484.13;4164905;28;20140;-71
2023/04/09 07:11:20;;;;;;;31.25;17.45;;;;;;;5.39;100.00;99487.06;4160764;28;20065;-72
2023/04/09 07:13:21;;;;;;;39.60;20.25;;;;;;;5.37;100.00;99483.81;4159588;28;20033;-72
2023/04/09 07:15:21;;;;;;;38.13;18.42;;;;;;;5.40;100.00;99482.38;4160316;28;20030;-72
2023/04/09 07:17:22;;;;;;;37.92;19.30;;;;;;;5.39;100.00;99489.81;4174605;28;20056;-72
2023/04/09 07:19:22;;;;;;;33.00;19.95;;;;;;;5.47;100.00;99480.78;4159953;28;20674;-72
2023/04/09 07:21:23;;;;;;;33.90;18.08;;;;;;;5.48;100.00;99482.41;4159463;28;20046;-72
2023/04/09 07:23:23;;;;;;;32.90;18.40;;;;;;;5.49;100.00;99486.75;4159799;28;20052;-72
2023/04/09 07:25:24;;;;;;;35.35;20.27;;;;;;;5.54;100.00;99478.34;4175881;28;20369;-72
2023/04/09 07:27:29;;;;;;;37.13;20.10;;;;;;;5.58;100.00;99471.09;4141670;28;20053;-71
2023/04/09 07:29:29;;;;;;;33.95;19.17;;;;;;;5.62;100.00;99485.78;4161091;28;20057;-71
2023/04/09 07:31:30;;;;;;;35.17;18.10;;;;;;;5.76;100.00;99484.84;4159308;28;20471;-71
2023/04/09 07:33:30;;;;;;;36.97;19.25;;;;;;;5.76;100.00;99493.09;4159561;28;20054;-71
2023/04/09 07:35:31;;;;;;;38.15;21.20;;;;;;;5.81;100.00;99485.53;4159970;28;20042;-71
2023/04/09 07:37:32;;;;;;;32.35;18.48;;;;;;;5.85;100.00;99486.47;4102899;28;20409;-71
2023/04/09 07:39:32;;;;;;;34.40;18.77;;;;;;;5.94;100.00;99486.50;4160316;28;20053;-71
2023/04/09 07:41:33;;;;;;;33.90;18.48;;;;;;;5.99;100.00;99485.56;4160596;28;20343;-71
2023/04/09 07:43:33;;;;;;;35.53;18.48;;;;;;;5.92;100.00;99491.53;4159417;28;20065;-71
2023/04/09 07:45:33;;;;;;;33.47;18.30;;;;;;;5.89;100.00;99489.41;4161626;28;20106;-72
2023/04/09 07:47:34;;;;;;;36.22;19.23;;;;;;;5.85;100.00;99480.19;4160713;28;20069;-71
2023/04/09 07:49:35;;;;;;;30.58;18.55;;;;;;;5.90;100.00;99477.28;4160739;28;20067;-71
2023/04/09 07:51:36;;;;;;;39.27;21.00;;;;;;;5.96;100.00;99483.44;4165629;28;20080;-71
2023/04/09 07:53:36;;;;;;;34.75;19.40;;;;;;;6.08;100.00;99489.91;4160282;28;20329;-71
2023/04/09 07:55:36;;;;;;;33.97;18.35;;;;;;;6.17;100.00;99478.91;4159473;28;20123;-72
2023/04/09 07:57:37;;;;;;;35.22;18.63;;;;;;;6.26;100.00;99482.47;4159559;28;20090;-72
2023/04/09 07:59:37;;;;;;;34.35;19.27;;;;;;;6.34;100.00;99483.59;4158161;28;20044;-72
2023/04/09 08:01:37;;;;;;;35.85;20.73;;;;;;;6.40;100.00;99480.34;4162977;28;20120;-72
2023/04/09 08:03:38;;;;;;;37.55;19.25;;;;;;;6.48;100.00;99485.03;4161931;28;20074;-72
2023/04/09 08:05:38;;;;;;;37.25;20.17;;;;;;;6.57;100.00;99486.94;4161980;28;20465;-72
2023/04/09 08:07:39;;;;;;;36.10;19.52;;;;;;;6.67;100.00;99489.34;4163751;28;20132;-72
2023/04/09 08:09:39;;;;;;;33.33;19.08;;;;;;;6.71;100.00;99495.81;4162718;28;20045;-71
2023/04/09 08:11:40;;;;;;;33.20;18.85;;;;;;;6.68;100.00;99486.25;4164106;28;20049;-72
2023/04/09 08:13:40;;;;;;;33.63;18.13;;;;;;;6.69;100.00;99495.31;4161972;28;20076;-72
2023/04/09 08:15:40;;;;;;;31.55;18.00;;;;;;;6.59;100.00;99496.47;4162834;28;20130;-72
2023/04/09 08:17:41;;;;;;;32.55;17.33;;;;;;;6.58;100.00;99485.81;4162301;28;20063;-72
2023/04/09 08:19:41;;;;;;;32.42;18.25;;;;;;;6.66;100.00;99491.28;4162706;28;20045;-71
2023/04/09 08:21:42;;;;;;;33.45;18.42;;;;;;;6.69;100.00;99487.06;4162822;28;20457;-71
2023/04/09 08:23:43;;;;;;;34.83;20.08;;;;;;;6.76;100.00;99495.63;4161495;28;20057;-71
2023/04/09 08:25:43;;;;;;;35.70;18.92;;;;;;;6.82;100.00;99490.78;4162514;28;20037;-71
2023/04/09 08:27:43;;;;;;;33.72;18.92;;;;;;;6.85;100.00;99496.41;4165271;28;20065;-71
2023/04/09 08:29:44;;;;;;;49.83;21.35;;;;;;;6.92;100.00;99487.66;4165404;28;20034;-71
2023/04/09 08:31:44;;;;;;;33.83;18.65;;;;;;;6.89;100.00;99494.63;4162919;28;20060;-71
2023/04/09 08:33:45;;;;;;;34.50;18.80;;;;;;;7.00;100.00;99495.88;4161625;28;20049;-71
2023/04/09 08:35:45;;;;;;;32.50;17.58;;;;;;;7.03;100.00;99494.41;4162161;28;20573;-71
2023/04/09 08:37:45;;;;;;;38.42;18.63;;;;;;;7.13;100.00;99496.00;4163130;28;20045;-71
2023/04/09 08:39:46;;;;;;;32.80;18.23;;;;;;;7.12;100.00;99491.63;4167738;28;20036;-71
2023/04/09 08:41:47;;;;;;;33.55;18.35;;;;;;;7.18;100.00;99484.78;4163442;28;20143;-71
2023/04/09 08:43:47;;;;;;;31.77;17.40;;;;;;;7.26;100.00;99484.75;4161186;28;20045;-71
2023/04/09 08:45:47;;;;;;;34.47;17.52;;;;;;;7.31;100.00;99484.56;4162887;28;20059;-71
2023/04/09 08:47:50;;;;;;;33.00;18.33;;;;;;;7.32;100.00;99483.44;4166111;28;20095;-71
2023/04/09 08:49:50;;;;;;;31.95;16.73;;;;;;;7.41;100.00;99485.34;4161890;28;20045;-71
2023/04/09 08:51:50;;;;;;;30.42;17.77;;;;;;;7.46;100.00;99482.41;4161804;28;20033;-71
2023/04/09 08:53:59;;;;;;;31.95;18.40;;;;;;;7.56;100.00;99482.00;4161545;28;20176;-71
2023/04/09 08:56:00;;;;;;;30.05;17.23;;;;;;;7.65;100.00;99481.94;4161399;28;20486;-71
2023/04/09 08:58:04;;;;;;;29.38;16.52;;;;;;;7.71;100.00;99480.63;4161479;28;20103;-71
2023/04/09 09:00:06;;;;;;;31.42;17.50;;;;;;;7.79;100.00;99479.75;4161103;28;20100;-72
2023/04/09 09:02:10;;;;;;;29.83;17.80;;;;;;;7.88;100.00;99480.50;4161143;28;20053;-72
2023/04/09 09:04:11;;;;;;;29.50;16.05;;;;;;;7.96;100.00;99485.13;4161226;28;20025;-72
2023/04/09 09:06:21;;;;;;;30.38;17.65;;;;;;;7.99;100.00;99480.88;4165366;28;20024;-72
2023/04/09 09:08:23;;;;;;;30.23;17.20;;;;;;;8.00;100.00;99482.50;4162193;28;20057;-72
2023/04/09 09:10:36;;;;;;;31.67;17.45;;;;;;;8.11;100.00;99475.44;4164387;28;20033;-72
2023/04/09 09:12:37;;;;;;;32.95;18.23;;;;;;;8.04;99.02;99475.19;4159666;28;20213;-72
2023/04/09 09:14:38;;;;;;;32.92;17.50;;;;;;;8.03;99.92;99468.06;4161492;28;20389;-72
2023/04/09 09:16:44;;;;;;;30.52;17.17;;;;;;;7.99;100.00;99478.94;4162772;28;20038;-72
2023/04/09 09:18:45;;;;;;;30.48;17.25;;;;;;;8.10;100.00;99474.63;4162452;28;20449;-72